Skip to content

GuitarMania

(*.248.185.41) 조회 수 20189 댓글 9
언제나 그렇듯
조용조용 왔다가며

쇠줄기타 녹음 올리고 갑니다~

요새는 이런 곡만 읊조리게 되는군요 ^^;

-석
Comment '9'
  • 콩쥐 2007.08.20 17:53 (*.84.126.60)
    devilous님
    바리오스도 스틸기타로 평생 연주하신분이예요....요즘 인기 쵝오죠.
    특히 오래전 그분 녹음 듣다보면 왼손으로 소리 만들어 나가는거 느끼게 되면 소름이...

    스틸기타는 특히 왼손으로 더 환상의 연주할 수 있을듯해요...
  • jazzman 2007.08.20 21:47 (*.187.216.171)
    쓸쓸한 공원에서 빈 그네가 바람에 흔들리고, 속절없이 흘러가버려 안타깝기만한 옛추억에 젖어드는 장면이 떠오릅니다만... ^^
    자작곡인가요? 오랫만의 devilous 님 연주 반갑습니다. 여운이 깊고 진하네요.
  • 샤콘느1004 2007.08.20 22:20 (*.205.148.185)
    쓸쓸한 밤... 혼자 강가에 앉아 차도 드문드문 지나다니고
    벌써 세월이 40을 바라보고
    과연 내가 잘 가고있는가 어디로 가고있나...

    아... 가끔은 이렇게 혼자있을수 있는 시간도
    이젠 나에겐 사치가 되었구나..

  • 밀롱가. 2007.08.21 00:44 (*.33.249.132)
    디비루스님 안녕하세요?
    반갑습니다.
    핑스에서 뵌적이 있는데...
    쓸쓸한 곡이네요... 마치 해지는 바닷가같은 느낌...
  • 샤콘느1004 2007.08.21 13:32 (*.216.46.23)
    제가 군시절 근무하던 금강하구둑검문소에서 밤이되면 기타를 들고 둑가에서
    혼자 기타치면서 노래하고 그러던 생각이 났습니다.
    이곡은 정말 기타에 아주 잘 어울리는 곡 같습니다.
    회상에 젖어들게 하기도 하고...
  • 좁은길로 2007.09.08 23:04 (*.52.3.114)
    오..정말 좋네요..

    전 사랑하는사람이 생각나네요..
  • 샤콘느1004 2007.10.18 16:06 (*.216.46.16)
    이곡하고 사막이 아름다운건.. 프롬대드...세곡은 출퇴근할때 항상듣습니다.
    요즘 가을분위기와 너무 잘 어울리고
    가슴이 휑해집니다.
    디비루스님 악보는 어디서 구할수있을까요 한번 꼭 만져보고싶은곡입니다.
  • 샤콘느1004 2007.10.18 16:18 (*.216.46.16)
    디비루스님 홈에 회원가입하니 악보가있네요,...그런데 이곡은 없네요 ㅡ.ㅡ
  • . 2011.11.16 17:05 (*.203.57.126)
    .
?

List of Articles
번호 제목 글쓴이 날짜 조회 수
1836 Love Affair 6 2007.06.02 19027
1835 zapateado///rodrigo 13 김은미 2007.06.03 23934
1834 최후의 트레몰로 (리버브효과없는겁니다..;;) 4 file JoDaC 2007.06.09 19127
1833 최후의 트레몰로 입니다 ^^ 32 file JoDaC 2007.06.06 23324
1832 전설 11 file 최병욱 2007.06.06 23245
1831 I believe 13 file orpheus15 2007.06.08 19167
1830 Romance.3번. 10 file 우체국가는길 2007.06.08 23800
1829 Kiss the Rain 이루마 곡 (기타 연주) 44 file 아이모레스 2007.06.12 26594
1828 오 솔레미오 4 file 밀롱가. 2007.06.14 21076
1827 Recuerdos de la Alhambra -F. Tarrega 12 file Jason 2007.06.15 23483
1826 알함브라 다시녹음했습니다~ 14 file 최병욱 2007.06.16 21551
1825 [re] 소르 연습곡 6번-리버브를 넣어보았습니다. 1 file niceplace 2007.06.20 21622
1824 소르 연습곡 6번 8 file niceplace 2007.06.17 21706
1823 Romance.3번. 다시 올려요 6 file 우체국가는길 2007.06.17 25605
1822 뱃노래 - 코스트 12 file fernando 2007.06.19 22286
1821 유키구라모토의 Meditation 18 file 최병욱 2007.06.19 23580
1820 fredric hand의 연습곡 1번 4 file 루하기 2007.06.21 15643
1819 리브라소나티네 3.Fuoco-롤랑디용 27 file MSGr 2007.06.21 28235
1818 바흐 샤콘느 10 file 좁은길로 2007.06.26 23023
1817 쉘부르의 우산 3 file nice guy 2007.06.27 22387
1816 Koyunbaba - C. Domeniconi 25 file 진느 2007.06.27 19697
1815 F. Tarrega,Capricho Arabe 33 file Jason 2007.06.28 22559
1814 Agua e Vinho - Egberto Gismonti 18 file limnz 2007.06.29 21880
1813 BWV1006a 프렐류드 3 file 좁은길로 2007.06.29 21628
1812 이노래어떤가요? Pulo do Gato(P.Bellinati) 15 file MSGr 2007.07.01 26293
1811 L'HYMNE A L'AMOUR / E.PIAF 24 file April 2007.07.04 20752
1810 Kleine Romanze- L. Walker 10 file Jason 2007.07.05 20414
1809 Triste Santuario by Vincent Gomez-슬픈 예배당 17 file Jason 2007.07.05 24281
1808 대성당1악장 8 file 좁은길로 2007.07.05 19963
1807 이루마의 When the love falls 7 file 최병욱 2007.07.07 43314
1806 종소리 12 file 좁은길로 2007.07.07 23273
1805 소르의 마적입니다... 19 file 화가 2007.07.08 27587
1804 brahms-theme and variations 20 file 기타레타 2007.07.09 29541
1803 [영상] 엘레지 Elegie (메르츠 Mertz) 3 2007.07.09 22483
1802 이병우 - 달려 18 file 김상욱 2007.07.09 21843
1801 대성당2악장 4 file 좁은길로 2007.07.09 31209
1800 도적의 노래-ibach 연주 16 file 바하의꿈 2007.07.10 22759
1799 하프시 팟사 완주--! 4 file 좁은길로 2007.07.10 21046
1798 핑거스타일- Sun dance (Kotaro Oshio) 7 file 최병욱 2007.07.11 24914
1797 Giuliani-- Rossiniana No.1 (글로빌 아트홀 실황연주) 15 file LDH 2007.07.11 18515
1796 엔커리지먼트-소르 39 file 기타레타 2007.07.11 22634
1795 이 곡 제목이 뭔가요? 3 file -_ - 2007.07.12 18920
1794 헨델의 아리아 23 file 아이모레스 2007.07.12 22545
1793 G선상의 아리아 - J.S.BACH 43 file 기타레타 2007.07.13 23228
1792 이루마의 Kiss the Rain 6 file 최병욱 2007.07.13 22944
1791 Pierre Bensusan - 아도니스의 정원 12 file 찬찬 2007.07.14 24127
1790 Bach - BWV1007 Prelude & Allemande 16 file 김상욱 2007.07.14 21975
1789 Wonderful tonight 43 file - 情 - 2007.07.14 25048
1788 Variation on Theme of Mozart - F.Sor 32 file Jason 2007.07.15 22978
1787 월량대표아적심(月亮代表我的心) 29 이진성 2007.07.19 25191
1786 Fantasia Arabe by Sabicas 22 file Jason 2007.07.22 18845
1785 샤콘느 뒤에뒤부분 7 file 좁은길로 2007.07.23 19567
1784 유키 구라모토의 Lake Louise(새로운 편곡) 17 file 최병욱 2007.07.23 22764
1783 Aria no.1 - F. Kleynjans 11 file bradpitt 2007.07.24 22662
1782 Septiembre (Maximo Diego Pujol) 21 file 라일 2007.07.26 21361
1781 (이중주) Green Sleeves 20 file niceplace 2007.07.27 24157
1780 BWV1006a Prelude 7 file 좁은길로 2007.07.27 25025
1779 A. Piazzolla Quattro Stagioni (부에노스아이레스의 사계) 1. Primavera portend (봄) 8 file sgq 2007.07.27 22583
1778 A. Piazzolla Oblivion(망각) 3 file sgq 2007.07.27 22379
1777 A. Piazzolla Liebertango 1 file sgq 2007.07.27 23299
1776 P. Bellinati Baiao de Gude 서울기타콰르텟 4 file sgq 2007.07.27 23201
1775 사람이 꽃보다 아름다워~~~ 4 야매 2007.07.28 23274
1774 Fur Elise by L. Van Beethoven 62 file Jason 2007.07.28 26610
1773 부탁 김효석 2007.07.29 18582
1772 클레이앙스-로망스1번(이중주) 6 file 기타레타 2007.07.30 19103
1771 Lamento No.2 / F. Kleynjans 12 file 이진성 2007.08.01 20515
1770 The old rugged cross by G. Bennard 10 file Jason 2007.08.02 21952
1769 로망스 no.1(이중주)-끌레앙 16 file 체르니 2007.08.04 31725
1768 Sleeprs, Awake! 눈뜨라부르는소리있어 7 file 좁은길로 2007.08.05 19983
1767 Estudio No.12 / F. Sor 13 file 이진성 2007.08.06 22448
1766 Partners in Praise / 안신영님 편곡 10 file orpheus15 2007.08.07 19506
1765 알베니즈-야자나무 아래에서 13 file 기타레타 2007.08.08 28551
1764 로드리고 // 고풍스런 티엔토 30 file 진느 2007.08.08 25129
1763 Sor Etude#6 10 file 밀롱가. 2007.08.10 20317
1762 Classical Gas/Mason Williams -클래식컬 개스 23 file Jason 2007.08.10 22666
1761 Adelita 2 file sky600 2007.08.12 14774
1760 maria luisa 6 file sky600 2007.08.12 23553
1759 sunflower 14 file 한사랑 2007.08.13 21039
1758 Tango En Skai 11 file 좁은길로 2007.08.13 23899
1757 바흐 // Choral from cantata147 arr.David Russell 31 file 진느 2007.08.14 20409
1756 milonga 6 file 2007.08.15 21592
1755 [동영상] Barrios - Una Limosna por el amor de Dios (최후의 트레몰로) 39 file 김상욱 2007.08.17 27480
» 텅 빈 놀이터 II by devilous 9 file devilous 2007.08.20 20189
1753 Sleepers, Awake! from Cantata BWV140 9 file April 2007.08.20 20063
1752 Yuichi Watanabe - Morning Dew 5 file 2007.08.21 23175
1751 Falla--ThreeCorneredHat(KimMoonHyung & Chung Sehee) 7 file 바하의꿈 2007.08.21 24656
1750 망고레의 Contemplacion (깊은 그리움) 24 file 아이모레스 2007.08.22 21953
1749 헨델의 대장간변주?^^ Handel--Blacksmith Variations 19 file 바하의꿈 2007.08.23 23599
1748 F. Sor의 인커리지먼트 18 file 바하의꿈 2007.08.24 24669
1747 알함브라궁전의 추억 12 file 정면 2007.08.24 21384
1746 죄송한! 탕고 안 스까이 바이 로랑디앙 (조율 맞춰 재업)ㅠ 8 file buyho 2007.08.26 16664
1745 Stairway to Heaven, Classical/Unplugged version 기악 독주 7 file 2007.08.28 25141
1744 Les Feuilles Mortes (고엽) - Joseph Kosma 20 file 고정석 2007.08.29 21353
1743 Beautiful Dreamer(토스토) 7 file 까치 2007.08.30 23051
1742 줄리아니 기타협주곡 5 file buyho 2007.09.04 20454
1741 가을편지 / 안형수 편곡 15 file orpheus15 2007.09.04 22599
1740 녹음은 어떻게 하나요? 2 소르초이 2007.09.05 19581
1739 TOmmy Emmanuel-Angelina 10 file 좁은길로 2007.09.05 19020
1738 내마음의 보석상자(동영상) 7 야매 2007.09.07 24346
1737 Venus(동영상) 4 야매 2007.09.07 27031
Board Pagination ‹ Prev 1 ... 11 12 13 14 15 16 17 18 19 20 21 22 23 24 25 26 27 28 29 30 ... 39 Next ›
/ 39

나눔글꼴 설치 안내


이 PC에는 나눔글꼴이 설치되어 있지 않습니다.

이 사이트를 나눔글꼴로 보기 위해서는
나눔글꼴을 설치해야 합니다.

설치 취소

Designed by sketchbooks.co.kr / sketchbook5 board skin

Sketchbook5, 스케치북5

Sketchbook5, 스케치북5

Sketchbook5, 스케치북5

Sketchbook5, 스케치북5

Powered by Xpress Engine / Designed by hikaru100

abcXYZ, 세종대왕,1234

abcXYZ, 세종대왕,1234